LFCK/DCM METAR and TAF weather

Enter ICAO airport designator
Station Type Date Time Source
LFCK METAR 2019/08/21 23:00 UTC NOAA

LFCK 212300Z AUTO 12004KT CAVOK 14/12 Q1023


Station Type Date Time Source
LFCK Decoded METAR 2019/08/21 23:00 UTC NOAA

Station name not available
Aug 21, 2019 - 07:00 PM EDT / 2019.08.21 2300 UTC
Wind: from the ESE (120 degrees) at 5 MPH (4 KT):0
Visibility: greater than 7 mile(s):0
Temperature: 57 F (14 C)
Dew Point: 53 F (12 C)
Relative Humidity: 87%
Pressure (altimeter): 30.21 in. Hg (1023 hPa)
ob: LFCK 212300Z AUTO 12004KT CAVOK 14/12 Q1023
cycle: 23

Station Type Date Time Source
LFCK TAF UTC NOAA

Error!

Example: see airport list